createdAt,value
2023-03-27T00:01:13.312Z,1.58
2023-03-27T00:03:41.478Z,1.40
2023-03-27T00:06:16.777Z,1.60
2023-03-27T00:08:46.509Z,1.27
2023-03-27T00:11:15.581Z,1.15
2023-03-27T00:13:49.441Z,1.33
2023-03-27T00:16:20.204Z,1.40
2023-03-27T00:18:47.707Z,1.40
2023-03-27T00:21:15.447Z,1.37
2023-03-27T00:23:43.186Z,1.52
2023-03-27T00:26:12.134Z,1.50
2023-03-27T00:28:39.904Z,1.40
2023-03-27T00:31:15.425Z,1.52
2023-03-27T00:33:43.135Z,1.80
2023-03-27T00:36:11.399Z,1.17
2023-03-27T00:38:43.585Z,1.58
2023-03-27T00:41:12.626Z,1.20
2023-03-27T00:43:43.579Z,1.00
2023-03-27T00:46:43.711Z,1.45
2023-03-27T00:49:12.340Z,1.00
2023-03-27T00:51:41.729Z,1.17
2023-03-27T00:54:09.848Z,1.10
2023-03-27T00:56:38.640Z,1.50
2023-03-27T00:59:10.838Z,1.50
2023-03-27T01:01:39.862Z,2.08
2023-03-27T01:04:08.997Z,1.55
2023-03-27T01:06:37.137Z,1.37
2023-03-27T01:09:04.740Z,1.70
2023-03-27T01:11:56.372Z,1.55
2023-03-27T01:14:23.811Z,1.40
2023-03-27T01:17:16.748Z,1.98
2023-03-27T01:20:14.320Z,1.77
2023-03-27T01:23:05.381Z,1.40
2023-03-27T01:26:00.973Z,1.75
2023-03-27T01:29:03.430Z,1.40
2023-03-27T01:32:10.211Z,1.50
2023-03-27T01:35:02.201Z,1.95
2023-03-27T01:38:02.886Z,1.55
2023-03-27T01:40:38.209Z,1.25
2023-03-27T01:43:33.724Z,1.00
2023-03-27T01:46:08.754Z,1.30
2023-03-27T01:48:51.502Z,1.00
2023-03-27T01:51:47.076Z,1.23
2023-03-27T01:54:25.135Z,1.10
2023-03-27T01:57:02.439Z,1.40
2023-03-27T01:59:33.801Z,1.20
2023-03-27T02:02:06.379Z,0.98
2023-03-27T02:04:57.087Z,1.17
2023-03-27T02:07:33.115Z,0.82
2023-03-27T02:10:04.867Z,0.93
2023-03-27T02:12:40.481Z,0.90
2023-03-27T02:15:23.600Z,1.12
2023-03-27T02:17:57.718Z,0.82
2023-03-27T02:20:25.427Z,0.95
2023-03-27T02:23:00.807Z,1.05
2023-03-27T02:25:41.965Z,1.00
2023-03-27T02:28:31.307Z,0.90
2023-03-27T02:31:33.115Z,1.00
2023-03-27T02:36:49.677Z,1.12
2023-03-27T02:39:30.737Z,0.93
2023-03-27T02:42:20.965Z,1.40
2023-03-27T02:44:56.706Z,1.80
2023-03-27T02:47:43.129Z,1.67
2023-03-27T02:50:21.880Z,1.75
2023-03-27T02:52:56.727Z,1.40
2023-03-27T02:55:28.325Z,1.60
2023-03-27T02:57:59.506Z,1.30
2023-03-27T03:00:30.011Z,1.60
2023-03-27T03:03:13.895Z,1.95
2023-03-27T03:05:41.999Z,1.62
2023-03-27T03:08:10.339Z,1.62
2023-03-27T03:10:45.333Z,1.75
2023-03-27T03:13:14.503Z,1.60
2023-03-27T03:15:46.094Z,1.52
2023-03-27T03:18:14.142Z,1.80
2023-03-27T03:20:41.893Z,1.50
2023-03-27T03:23:09.384Z,1.17
2023-03-27T03:25:37.114Z,1.30
2023-03-27T03:28:08.169Z,1.33
2023-03-27T03:30:38.821Z,1.00
2023-03-27T03:33:06.843Z,1.17
2023-03-27T03:35:35.001Z,1.02
2023-03-27T03:38:03.785Z,1.10
2023-03-27T03:40:33.286Z,1.30
2023-03-27T03:43:00.707Z,1.40
2023-03-27T03:45:28.371Z,1.20
2023-03-27T03:47:56.201Z,1.87
2023-03-27T03:50:24.216Z,1.92
2023-03-27T03:52:51.649Z,1.45
2023-03-27T03:55:19.391Z,1.52
2023-03-27T03:57:50.194Z,1.62
2023-03-27T04:00:18.817Z,1.73
2023-03-27T04:02:50.707Z,1.98
2023-03-27T04:05:18.293Z,2.05
2023-03-27T04:07:46.053Z,1.58
2023-03-27T04:10:14.674Z,2.00
2023-03-27T04:12:49.160Z,2.15
2023-03-27T04:15:17.009Z,2.53
2023-03-27T04:17:48.392Z,2.28
2023-03-27T04:20:17.277Z,2.55
2023-03-27T04:22:46.440Z,2.55
2023-03-27T04:25:15.877Z,2.05
2023-03-27T04:27:44.784Z,2.37
2023-03-27T04:30:16.131Z,2.45
2023-03-27T04:32:46.521Z,2.83
2023-03-27T04:35:25.162Z,2.80
2023-03-27T04:37:52.866Z,2.70
2023-03-27T04:40:25.424Z,2.70
2023-03-27T04:42:55.843Z,1.95
2023-03-27T04:45:25.588Z,2.47
2023-03-27T04:47:54.431Z,2.50
2023-03-27T04:50:22.284Z,2.30
2023-03-27T04:52:51.726Z,2.75
2023-03-27T04:55:19.932Z,2.58
2023-03-27T04:57:48.086Z,2.28
2023-03-27T05:00:16.458Z,2.20
2023-03-27T05:02:47.808Z,2.15
2023-03-27T05:05:17.016Z,2.10
2023-03-27T05:07:45.801Z,2.20
2023-03-27T05:10:15.647Z,2.55
2023-03-27T05:12:48.078Z,2.70
2023-03-27T05:15:16.783Z,2.75
2023-03-27T05:17:46.850Z,3.05
2023-03-27T05:20:19.334Z,2.58
2023-03-27T05:22:47.610Z,3.03
2023-03-27T05:25:16.255Z,1.98
2023-03-27T05:27:48.090Z,1.85
2023-03-27T05:30:18.368Z,1.98
2023-03-27T05:32:48.739Z,1.42
2023-03-27T05:35:18.142Z,1.10
2023-03-27T05:37:51.212Z,1.10
2023-03-27T05:40:22.379Z,1.48
2023-03-27T05:42:51.145Z,1.80
2023-03-27T05:45:19.478Z,3.10
2023-03-27T05:47:54.433Z,3.35
2023-03-27T05:50:33.611Z,3.55
2023-03-27T05:53:04.282Z,4.40
2023-03-27T05:55:32.467Z,4.07
2023-03-27T05:58:00.164Z,3.72
2023-03-27T06:00:31.624Z,3.40
2023-03-27T06:03:01.642Z,3.35
2023-03-27T06:05:34.624Z,3.40
2023-03-27T06:08:02.359Z,3.47
2023-03-27T06:10:30.477Z,2.80
2023-03-27T06:13:08.248Z,2.70
2023-03-27T06:15:39.164Z,2.53
2023-03-27T06:18:08.054Z,2.70
2023-03-27T06:20:37.353Z,3.22
2023-03-27T06:23:09.374Z,3.12
2023-03-27T06:25:39.357Z,3.47
2023-03-27T06:28:09.476Z,2.62
2023-03-27T06:30:38.856Z,1.75
2023-03-27T06:33:08.132Z,1.77
2023-03-27T06:35:35.819Z,1.87
2023-03-27T06:38:03.562Z,1.52
2023-03-27T06:40:32.271Z,1.52
2023-03-27T06:43:02.059Z,1.33
2023-03-27T06:45:35.504Z,1.20
2023-03-27T06:48:15.553Z,1.45
2023-03-27T06:50:49.027Z,1.10
2023-03-27T06:55:49.181Z,2.00
2023-03-27T06:58:18.906Z,2.30
2023-03-27T07:00:48.861Z,1.83
2023-03-27T07:03:26.074Z,1.35
2023-03-27T07:05:55.709Z,1.27
2023-03-27T07:08:26.670Z,1.20
2023-03-27T07:13:25.751Z,0.82
2023-03-27T07:15:54.806Z,1.58
2023-03-27T07:18:23.437Z,2.75
2023-03-27T07:20:51.498Z,1.85
2023-03-27T07:23:19.349Z,2.00
2023-03-27T07:25:49.891Z,2.00
2023-03-27T07:28:20.980Z,2.28
2023-03-27T07:30:48.927Z,2.30
2023-03-27T07:33:20.660Z,2.53
2023-03-27T07:35:48.527Z,2.35
2023-03-27T07:38:18.459Z,2.55
2023-03-27T07:40:50.164Z,1.77
2023-03-27T07:43:19.472Z,2.00
2023-03-27T07:45:47.168Z,1.92
2023-03-27T07:48:18.917Z,1.92
2023-03-27T07:53:33.063Z,2.47
2023-03-27T07:56:03.589Z,1.67
2023-03-27T07:58:32.327Z,1.42
2023-03-27T08:01:02.487Z,1.30
2023-03-27T08:03:31.327Z,0.90
2023-03-27T08:06:00.395Z,0.90
2023-03-27T08:08:28.418Z,0.85
2023-03-27T08:10:57.556Z,0.82
2023-03-27T08:13:25.722Z,1.00
2023-03-27T08:16:24.870Z,0.82
2023-03-27T08:18:53.407Z,1.10
2023-03-27T08:21:21.139Z,1.17
2023-03-27T08:23:50.026Z,1.60
2023-03-27T08:26:20.924Z,1.27
2023-03-27T08:28:49.138Z,1.20
2023-03-27T08:31:18.399Z,1.12
2023-03-27T08:33:46.860Z,1.50
2023-03-27T08:36:14.698Z,1.50
2023-03-27T08:38:43.342Z,1.90
2023-03-27T08:41:33.796Z,2.10
2023-03-27T08:44:03.927Z,3.08
2023-03-27T08:46:58.387Z,3.47
2023-03-27T08:49:29.471Z,3.10
2023-03-27T08:54:38.306Z,3.37
2023-03-27T08:57:17.601Z,2.70
2023-03-27T08:59:47.192Z,3.15
2023-03-27T09:02:30.059Z,2.30
2023-03-27T09:05:01.696Z,2.78
2023-03-27T09:07:34.425Z,1.85
2023-03-27T09:10:13.640Z,2.25
2023-03-27T09:13:28.145Z,2.30
2023-03-27T09:16:17.239Z,2.43
2023-03-27T09:19:01.866Z,2.12
2023-03-27T09:21:37.553Z,1.62
2023-03-27T09:24:13.539Z,1.50
2023-03-27T09:26:43.101Z,2.20
2023-03-27T09:29:20.648Z,3.12
2023-03-27T09:31:51.076Z,3.42
2023-03-27T09:34:26.834Z,2.80
2023-03-27T09:36:54.581Z,4.22
2023-03-27T09:39:28.120Z,4.85
2023-03-27T09:42:11.245Z,5.22
2023-03-27T09:44:42.404Z,7.50
2023-03-27T09:47:34.617Z,7.07
2023-03-27T09:50:33.176Z,6.70
2023-03-27T09:53:13.669Z,6.20
2023-03-27T09:56:03.031Z,4.40
2023-03-27T09:58:44.125Z,4.30
2023-03-27T10:01:20.512Z,4.62
2023-03-27T10:03:53.041Z,5.00
2023-03-27T10:06:30.251Z,5.07
2023-03-27T10:09:07.146Z,6.93
2023-03-27T10:11:35.837Z,5.03
2023-03-27T10:14:13.703Z,4.60
2023-03-27T10:16:41.754Z,4.05
2023-03-27T10:19:21.831Z,2.90
2023-03-27T10:21:49.730Z,2.30
2023-03-27T10:24:28.152Z,2.50
2023-03-27T10:27:00.393Z,1.60
2023-03-27T10:29:32.985Z,1.50
2023-03-27T10:32:01.840Z,1.20
2023-03-27T10:34:39.988Z,1.42
2023-03-27T10:37:29.338Z,2.35
2023-03-27T10:40:09.352Z,2.37
2023-03-27T10:42:37.951Z,4.55
2023-03-27T10:45:07.670Z,3.35
2023-03-27T10:47:35.467Z,2.55
2023-03-27T10:50:15.477Z,2.47
2023-03-27T10:53:02.237Z,1.98
2023-03-27T10:55:44.864Z,1.25
2023-03-27T10:58:25.658Z,1.42
2023-03-27T11:00:59.349Z,2.97
2023-03-27T11:03:31.916Z,2.37
2023-03-27T11:06:03.226Z,2.53
2023-03-27T11:08:58.421Z,3.78
2023-03-27T11:11:49.110Z,10.13
2023-03-27T11:14:20.371Z,11.98
2023-03-27T11:16:53.946Z,12.63
2023-03-27T11:19:42.899Z,16.02
2023-03-27T11:22:15.356Z,15.15
2023-03-27T11:24:56.120Z,14.95
2023-03-27T11:27:32.583Z,14.93
2023-03-27T11:30:08.482Z,15.70
2023-03-27T11:32:46.702Z,13.85
2023-03-27T11:35:23.201Z,15.00
2023-03-27T11:38:08.200Z,15.27
2023-03-27T11:40:46.542Z,13.73
2023-03-27T11:43:16.240Z,14.15
2023-03-27T11:45:53.518Z,14.25
2023-03-27T11:48:49.099Z,14.25
2023-03-27T11:51:54.976Z,13.88
2023-03-27T11:54:41.105Z,12.85
2023-03-27T11:57:23.289Z,13.52
2023-03-27T11:59:58.281Z,12.68
2023-03-27T12:02:46.625Z,12.73
2023-03-27T12:05:31.857Z,12.93
2023-03-27T12:08:22.487Z,13.82
2023-03-27T12:10:52.953Z,13.23
2023-03-27T12:14:00.886Z,13.43
2023-03-27T12:16:52.123Z,11.20
2023-03-27T12:19:39.160Z,10.45
2023-03-27T12:22:50.557Z,10.52
2023-03-27T12:25:40.123Z,9.25
2023-03-27T12:28:28.184Z,9.57
2023-03-27T12:30:56.413Z,8.93
2023-03-27T12:33:36.344Z,8.80
2023-03-27T12:36:06.315Z,7.93
2023-03-27T12:38:40.115Z,6.93
2023-03-27T12:41:43.276Z,6.25
2023-03-27T12:44:13.651Z,6.28
2023-03-27T12:46:42.499Z,6.15
2023-03-27T12:49:13.242Z,5.20
2023-03-27T12:51:41.355Z,5.37
2023-03-27T12:54:21.630Z,4.75
2023-03-27T12:56:59.182Z,3.10
2023-03-27T12:59:29.271Z,3.12
2023-03-27T13:02:03.451Z,3.00
2023-03-27T13:04:49.880Z,2.60
2023-03-27T13:07:43.699Z,2.10
2023-03-27T13:10:33.701Z,1.92
2023-03-27T13:13:24.482Z,1.73
2023-03-27T13:16:17.379Z,1.30
2023-03-27T13:19:06.923Z,1.30
2023-03-27T13:22:00.978Z,1.12
2023-03-27T13:24:59.394Z,1.45
2023-03-27T13:27:54.355Z,1.90
2023-03-27T13:30:44.612Z,1.20
2023-03-27T13:33:23.047Z,1.83
2023-03-27T13:36:10.489Z,1.30
2023-03-27T13:38:53.316Z,1.40
2023-03-27T13:41:43.495Z,1.73
2023-03-27T13:44:22.492Z,1.37
2023-03-27T13:46:54.456Z,1.77
2023-03-27T13:49:46.595Z,1.92
2023-03-27T13:52:44.411Z,2.25
2023-03-27T13:55:12.391Z,2.58
2023-03-27T13:57:56.063Z,1.90
2023-03-27T14:00:56.880Z,2.03
2023-03-27T14:03:52.443Z,2.80
2023-03-27T14:06:39.305Z,2.80
2023-03-27T14:09:35.610Z,2.05
2023-03-27T14:12:34.134Z,2.58
2023-03-27T14:15:24.020Z,2.60
2023-03-27T14:17:57.085Z,2.85
2023-03-27T14:20:31.876Z,2.97
2023-03-27T14:23:06.620Z,3.35
2023-03-27T14:25:43.737Z,2.58
2023-03-27T14:28:36.528Z,2.37
2023-03-27T14:31:07.416Z,1.85
2023-03-27T14:33:39.201Z,2.00
2023-03-27T14:36:16.539Z,2.37
2023-03-27T14:38:44.096Z,3.62
2023-03-27T14:41:19.758Z,3.40
2023-03-27T14:43:48.794Z,2.70
2023-03-27T14:46:16.994Z,1.90
2023-03-27T14:48:46.109Z,2.08
2023-03-27T14:51:19.607Z,1.90
2023-03-27T14:53:49.550Z,2.00
2023-03-27T14:56:24.026Z,1.42
2023-03-27T14:58:55.499Z,1.65
2023-03-27T15:01:23.449Z,1.60
2023-03-27T15:03:53.832Z,1.60
2023-03-27T15:06:26.395Z,2.60
2023-03-27T15:08:56.386Z,2.08
2023-03-27T15:11:27.574Z,2.03
2023-03-27T15:13:56.292Z,1.80
2023-03-27T15:16:25.973Z,2.08
2023-03-27T15:19:05.038Z,1.92
2023-03-27T15:21:46.562Z,2.25
2023-03-27T15:24:24.277Z,2.17
2023-03-27T15:26:53.144Z,1.75
2023-03-27T15:29:44.028Z,2.20
2023-03-27T15:32:14.972Z,1.75
2023-03-27T15:34:47.807Z,1.45
2023-03-27T15:37:23.221Z,1.50
2023-03-27T15:40:23.465Z,1.67
2023-03-27T15:42:51.098Z,1.12
2023-03-27T15:45:24.263Z,1.85
2023-03-27T15:48:05.636Z,1.67
2023-03-27T15:50:34.003Z,1.30
2023-03-27T15:53:02.451Z,1.25
2023-03-27T15:55:32.436Z,1.58
2023-03-27T15:58:00.241Z,1.40
2023-03-27T16:00:28.981Z,1.87
2023-03-27T16:02:56.797Z,1.77
2023-03-27T16:05:24.246Z,1.92
2023-03-27T16:07:52.103Z,1.90
2023-03-27T16:10:31.778Z,2.30
2023-03-27T16:13:03.181Z,1.50
2023-03-27T16:15:41.716Z,1.50
2023-03-27T16:18:28.882Z,1.80
2023-03-27T16:21:06.827Z,2.08
2023-03-27T16:23:34.477Z,2.05
2023-03-27T16:26:02.762Z,1.87
2023-03-27T16:28:30.444Z,2.42
2023-03-27T16:30:58.078Z,2.55
2023-03-27T16:33:29.606Z,2.10
2023-03-27T16:35:58.375Z,1.87
2023-03-27T16:38:26.411Z,2.55
2023-03-27T16:40:53.803Z,2.10
2023-03-27T16:43:21.183Z,2.30
2023-03-27T16:45:48.957Z,2.22
2023-03-27T16:48:16.376Z,2.10
2023-03-27T16:50:43.819Z,2.42
2023-03-27T16:53:11.612Z,2.42
2023-03-27T16:55:39.087Z,2.70
2023-03-27T16:58:06.551Z,2.17
2023-03-27T17:00:34.292Z,1.83
2023-03-27T17:03:02.256Z,1.80
2023-03-27T17:05:34.248Z,1.60
2023-03-27T17:08:02.282Z,1.50
2023-03-27T17:10:31.086Z,1.42
2023-03-27T17:12:58.519Z,1.70
2023-03-27T17:15:26.218Z,1.70
2023-03-27T17:17:53.700Z,1.60
2023-03-27T17:20:21.376Z,1.48
2023-03-27T17:22:49.078Z,2.22
2023-03-27T17:25:17.646Z,1.80
2023-03-27T17:27:45.015Z,1.60
2023-03-27T17:30:15.940Z,1.70
2023-03-27T17:32:45.946Z,1.70
2023-03-27T17:35:13.659Z,1.80
2023-03-27T17:37:41.411Z,1.60
2023-03-27T17:40:09.898Z,1.30
2023-03-27T17:42:37.722Z,1.90
2023-03-27T17:45:06.220Z,1.42
2023-03-27T17:47:33.654Z,2.00
2023-03-27T17:50:01.366Z,1.98
2023-03-27T17:52:31.200Z,2.33
2023-03-27T17:54:59.966Z,1.95
2023-03-27T17:57:28.048Z,2.20
2023-03-27T17:59:55.617Z,1.70
2023-03-27T18:02:23.028Z,2.00
2023-03-27T18:04:52.359Z,2.10
2023-03-27T18:07:20.363Z,1.42
2023-03-27T18:09:47.980Z,1.37
2023-03-27T18:12:17.466Z,2.00
2023-03-27T18:14:46.516Z,2.22
2023-03-27T18:17:15.808Z,1.80
2023-03-27T18:19:43.512Z,1.98
2023-03-27T18:22:11.048Z,1.60
2023-03-27T18:24:38.421Z,1.87
2023-03-27T18:27:06.128Z,1.52
2023-03-27T18:29:34.463Z,1.42
2023-03-27T18:32:01.830Z,1.83
2023-03-27T18:34:29.529Z,1.52
2023-03-27T18:36:56.925Z,1.35
2023-03-27T18:39:24.339Z,1.50
2023-03-27T18:41:53.311Z,1.60
2023-03-27T18:44:21.603Z,1.50
2023-03-27T18:46:49.013Z,1.35
2023-03-27T18:49:24.154Z,1.27
2023-03-27T18:51:52.660Z,1.50
2023-03-27T18:54:20.359Z,1.48
2023-03-27T18:56:48.641Z,1.42
2023-03-27T18:59:16.108Z,1.25
2023-03-27T19:01:44.002Z,1.70
2023-03-27T19:04:13.980Z,1.35
2023-03-27T19:06:42.522Z,1.60
2023-03-27T19:09:10.322Z,1.50
2023-03-27T19:11:38.312Z,1.30
2023-03-27T19:14:08.534Z,1.30
2023-03-27T19:16:36.283Z,1.40
2023-03-27T19:19:09.703Z,1.45
2023-03-27T19:21:38.318Z,1.62
2023-03-27T19:24:06.404Z,2.10
2023-03-27T19:26:34.424Z,2.00
2023-03-27T19:29:02.149Z,1.90
2023-03-27T19:31:29.767Z,1.95
2023-03-27T19:34:06.357Z,1.80
2023-03-27T19:36:34.011Z,1.45
2023-03-27T19:39:01.494Z,1.40
2023-03-27T19:41:29.830Z,2.28
2023-03-27T19:44:00.250Z,1.70
2023-03-27T19:46:29.217Z,1.50
2023-03-27T19:48:57.176Z,1.58
2023-03-27T19:51:25.672Z,1.75
2023-03-27T19:53:53.179Z,1.95
2023-03-27T19:56:21.937Z,1.95
2023-03-27T19:58:49.325Z,1.62
2023-03-27T20:01:19.705Z,1.50
2023-03-27T20:03:47.625Z,1.55
2023-03-27T20:06:19.454Z,1.42
2023-03-27T20:08:47.251Z,2.05
2023-03-27T20:11:15.064Z,1.45
2023-03-27T20:13:55.392Z,1.40
2023-03-27T20:16:26.491Z,1.90
2023-03-27T20:18:55.505Z,2.00
2023-03-27T20:21:24.582Z,2.22
2023-03-27T20:23:55.705Z,1.80
2023-03-27T20:26:24.160Z,1.60
2023-03-27T20:28:54.440Z,1.27
2023-03-27T20:31:22.352Z,1.60
2023-03-27T20:33:49.942Z,1.12
2023-03-27T20:36:19.754Z,1.42
2023-03-27T20:38:47.313Z,1.20
2023-03-27T20:41:15.829Z,1.50
2023-03-27T20:43:46.879Z,1.37
2023-03-27T20:46:14.592Z,1.50
2023-03-27T20:48:44.883Z,1.58
2023-03-27T20:51:24.416Z,1.40
2023-03-27T20:53:56.020Z,1.75
2023-03-27T20:56:24.724Z,1.30
2023-03-27T20:58:52.250Z,1.50
2023-03-27T21:01:19.758Z,1.42
2023-03-27T21:03:49.905Z,1.33
2023-03-27T21:06:20.132Z,1.80
2023-03-27T21:08:48.042Z,1.90
2023-03-27T21:11:15.708Z,1.50
2023-03-27T21:13:43.136Z,1.42
2023-03-27T21:16:10.990Z,1.40
2023-03-27T21:18:38.565Z,1.77
2023-03-27T21:21:06.206Z,1.75
2023-03-27T21:23:36.959Z,1.50
2023-03-27T21:26:04.758Z,1.80
2023-03-27T21:28:32.264Z,1.65
2023-03-27T21:31:06.225Z,1.80
2023-03-27T21:33:34.018Z,1.70
2023-03-27T21:36:04.676Z,1.77
2023-03-27T21:38:32.568Z,1.50
2023-03-27T21:41:02.043Z,1.50
2023-03-27T21:43:30.127Z,1.40
2023-03-27T21:46:01.773Z,1.62
2023-03-27T21:48:30.316Z,1.65
2023-03-27T21:51:02.773Z,1.37
2023-03-27T21:55:58.469Z,1.30
2023-03-27T21:58:26.166Z,1.35
2023-03-27T22:00:57.229Z,1.35
2023-03-27T22:03:26.139Z,1.35
2023-03-27T22:06:07.658Z,1.42
2023-03-27T22:08:39.019Z,1.40
2023-03-27T22:11:06.933Z,1.30
2023-03-27T22:13:36.246Z,1.30
2023-03-27T22:16:09.431Z,1.27
2023-03-27T22:18:36.924Z,1.30
2023-03-27T22:21:25.574Z,1.35
2023-03-27T22:23:54.879Z,1.30
2023-03-27T22:26:25.340Z,1.48
2023-03-27T22:28:52.859Z,1.40
2023-03-27T22:31:23.853Z,1.48
2023-03-27T22:33:51.949Z,1.95
2023-03-27T22:36:19.429Z,1.50
2023-03-27T22:38:46.847Z,1.60
2023-03-27T22:41:15.303Z,1.60
2023-03-27T22:43:42.800Z,1.60
2023-03-27T22:46:15.752Z,1.50
2023-03-27T22:48:43.460Z,2.10
2023-03-27T22:51:12.024Z,1.40
2023-03-27T22:53:40.168Z,1.87
2023-03-27T22:56:08.284Z,1.52
2023-03-27T22:58:36.004Z,1.33
2023-03-27T23:01:04.571Z,1.60
2023-03-27T23:03:33.023Z,1.58
2023-03-27T23:06:00.860Z,1.70
2023-03-27T23:08:28.943Z,1.65
2023-03-27T23:11:04.766Z,1.58
2023-03-27T23:13:34.064Z,1.55
2023-03-27T23:16:02.139Z,1.90
2023-03-27T23:18:29.894Z,1.58
2023-03-27T23:21:06.109Z,1.42
2023-03-27T23:23:35.805Z,1.73
2023-03-27T23:26:04.504Z,1.58
2023-03-27T23:28:35.340Z,1.40
2023-03-27T23:31:05.377Z,1.23
2023-03-27T23:33:38.324Z,1.35
2023-03-27T23:36:08.923Z,1.62
2023-03-27T23:38:37.432Z,1.10
2023-03-27T23:41:06.342Z,1.77
2023-03-27T23:43:34.944Z,1.70
2023-03-27T23:46:04.099Z,1.58
2023-03-27T23:48:31.955Z,1.67
2023-03-27T23:50:59.666Z,1.42
2023-03-27T23:53:28.224Z,1.85
2023-03-27T23:55:57.042Z,1.70
2023-03-27T23:58:28.652Z,1.75
